createdAt,value
2019-05-15T00:00:40.220Z,9
2019-05-15T00:01:42.678Z,9
2019-05-15T00:02:44.568Z,8.4
2019-05-15T00:03:49.073Z,9.3
2019-05-15T00:04:50.560Z,9.5
2019-05-15T00:05:52.151Z,9.4
2019-05-15T00:06:53.771Z,8.8
2019-05-15T00:07:55.658Z,9.2
2019-05-15T00:08:59.756Z,9.5
2019-05-15T00:10:01.645Z,9.3
2019-05-15T00:11:03.526Z,9.6
2019-05-15T00:12:05.414Z,9.2
2019-05-15T00:13:10.128Z,9.4
2019-05-15T00:14:11.753Z,9
2019-05-15T00:15:13.365Z,9.8
2019-05-15T00:16:14.716Z,9.1
2019-05-15T00:17:16.333Z,9.1
2019-05-15T00:18:19.769Z,9.4
2019-05-15T00:19:21.652Z,9.1
2019-05-15T00:20:23.541Z,8.5
2019-05-15T00:21:25.427Z,8.7
2019-05-15T00:22:29.649Z,9.7
2019-05-15T00:23:31.521Z,8.9
2019-05-15T00:24:33.409Z,8.9
2019-05-15T00:25:35.297Z,9
2019-05-15T00:26:39.456Z,9.9
2019-05-15T00:27:41.356Z,9.2
2019-05-15T00:28:43.234Z,8.7
2019-05-15T00:29:45.123Z,9.3
2019-05-15T00:30:49.556Z,9.6
2019-05-15T00:31:51.456Z,9.4
2019-05-15T00:32:53.342Z,8.4
2019-05-15T00:33:55.232Z,9.4
2019-05-15T00:34:59.217Z,8.8
2019-05-15T00:36:00.841Z,8.9
2019-05-15T00:37:02.713Z,8.7
2019-05-15T00:38:04.411Z,9.1
2019-05-15T00:39:08.249Z,8.9
2019-05-15T00:40:10.566Z,9
2019-05-15T00:41:12.428Z,9
2019-05-15T00:42:14.017Z,8.6
2019-05-15T00:43:18.161Z,9
2019-05-15T00:44:20.258Z,8.4
2019-05-15T00:45:21.843Z,8.8
2019-05-15T00:46:23.707Z,8.8
2019-05-15T00:47:25.573Z,8.4
2019-05-15T00:48:29.632Z,9.6
2019-05-15T00:49:30.961Z,8.5
2019-05-15T00:50:32.535Z,9.1
2019-05-15T00:51:34.403Z,8.7
2019-05-15T00:52:35.981Z,8.3
2019-05-15T00:53:40.309Z,8.8
2019-05-15T00:54:41.905Z,9.1
2019-05-15T00:55:43.772Z,8.7
2019-05-15T00:56:45.640Z,8.8
2019-05-15T00:57:49.880Z,8.5
2019-05-15T00:58:51.742Z,8.7
2019-05-15T00:59:53.326Z,8.3
2019-05-15T01:00:55.182Z,8.6
2019-05-15T01:01:59.277Z,8.6
2019-05-15T01:03:01.247Z,9
2019-05-15T01:04:02.823Z,9
2019-05-15T01:05:04.706Z,9.3
2019-05-15T01:06:08.746Z,9
2019-05-15T01:07:10.604Z,8.8
2019-05-15T01:08:12.475Z,9.1
2019-05-15T01:09:14.574Z,9.4
2019-05-15T01:10:16.159Z,10.3
2019-05-15T01:11:20.624Z,9.6
2019-05-15T01:12:22.489Z,9.5
2019-05-15T01:13:24.352Z,10.5
2019-05-15T01:14:28.294Z,10.7
2019-05-15T01:15:30.529Z,10.4
2019-05-15T01:16:32.397Z,10
2019-05-15T01:17:34.251Z,10
2019-05-15T01:18:38.276Z,10.4
2019-05-15T01:19:40.297Z,10.8
2019-05-15T01:20:42.153Z,10.1
2019-05-15T01:21:44.016Z,10.1
2019-05-15T01:22:45.350Z,10.4
2019-05-15T01:23:48.788Z,10
2019-05-15T01:24:50.650Z,10.1
2019-05-15T01:25:52.520Z,10.3
2019-05-15T01:26:54.102Z,11
2019-05-15T01:27:58.214Z,11
2019-05-15T01:29:00.181Z,10.3
2019-05-15T01:30:01.764Z,10.7
2019-05-15T01:31:03.626Z,10.5
2019-05-15T01:32:05.489Z,10.5
2019-05-15T01:33:09.822Z,11.1
2019-05-15T01:34:11.681Z,10.9
2019-05-15T01:35:13.542Z,11
2019-05-15T01:36:15.407Z,10.3
2019-05-15T01:37:19.561Z,10.3
2019-05-15T01:38:21.433Z,10.6
2019-05-15T01:39:23.295Z,10.7
2019-05-15T01:40:25.157Z,10.6
2019-05-15T01:41:29.157Z,10.7
2019-05-15T01:42:31.018Z,10.3
2019-05-15T01:43:32.878Z,10.7
2019-05-15T01:44:34.749Z,10.2
2019-05-15T01:45:39.040Z,10.1
2019-05-15T01:46:41.079Z,10.6
2019-05-15T01:47:42.935Z,11.2
2019-05-15T01:48:44.797Z,10.7
2019-05-15T01:49:48.851Z,11.1
2019-05-15T01:50:50.989Z,11
2019-05-15T01:51:52.848Z,10.6
2019-05-15T01:52:54.711Z,11.5
2019-05-15T01:53:58.792Z,10.5
2019-05-15T01:55:00.674Z,11.1
2019-05-15T01:56:01.736Z,10.6
2019-05-15T01:57:03.609Z,10.7
2019-05-15T01:58:05.473Z,10.8
2019-05-15T01:59:09.419Z,10.5
2019-05-15T02:00:11.279Z,11.1
2019-05-15T02:01:13.143Z,10.9
2019-05-15T02:02:15.007Z,10.7
2019-05-15T02:03:18.771Z,10.4
2019-05-15T02:04:20.913Z,11.2
2019-05-15T02:05:22.481Z,11
2019-05-15T02:06:24.343Z,10.5
2019-05-15T02:07:28.482Z,10.8
2019-05-15T02:08:30.344Z,11.2
2019-05-15T02:09:32.204Z,10.6
2019-05-15T02:10:34.068Z,11
2019-05-15T02:11:38.061Z,10.9
2019-05-15T02:12:40.605Z,10.6
2019-05-15T02:13:42.471Z,11.2
2019-05-15T02:14:44.344Z,11
2019-05-15T02:15:47.927Z,11.1
2019-05-15T02:16:50.087Z,10.4
2019-05-15T02:17:52.008Z,10.4
2019-05-15T02:18:53.884Z,11.2
2019-05-15T02:19:55.752Z,11.1
2019-05-15T02:21:00.173Z,11.1
2019-05-15T02:22:01.484Z,10.6
2019-05-15T02:23:03.350Z,10.4
2019-05-15T02:24:05.221Z,10.2
2019-05-15T02:25:09.642Z,9.9
2019-05-15T02:26:11.507Z,10.4
2019-05-15T02:27:13.373Z,10.4
2019-05-15T02:28:15.240Z,10.5
2019-05-15T02:29:25.654Z,10
2019-05-15T02:30:35.450Z,10
2019-05-15T02:31:40.329Z,10.6
2019-05-15T02:32:42.196Z,10.7
2019-05-15T02:33:44.067Z,10.6
2019-05-15T02:34:45.937Z,10.3
2019-05-15T02:35:51.555Z,10.5
2019-05-15T02:36:53.428Z,11.2
2019-05-15T02:37:55.292Z,10.2
2019-05-15T02:39:00.652Z,10.9
2019-05-15T02:40:02.678Z,10.8
2019-05-15T02:41:04.537Z,10
2019-05-15T02:42:10.207Z,10.6
2019-05-15T02:43:12.272Z,10.6
2019-05-15T02:44:14.135Z,10.3
2019-05-15T02:45:19.269Z,10.8
2019-05-15T02:46:21.184Z,10.3
2019-05-15T02:47:23.069Z,10.9
2019-05-15T02:48:24.656Z,10.5
2019-05-15T02:49:29.900Z,10.5
2019-05-15T02:50:31.995Z,10.8
2019-05-15T02:51:33.329Z,10.3
2019-05-15T02:52:35.192Z,10.1
2019-05-15T02:53:40.484Z,10.5
2019-05-15T02:54:42.400Z,10.7
2019-05-15T02:55:44.257Z,10.8
2019-05-15T02:56:46.122Z,10.6
2019-05-15T02:57:50.559Z,10.2
2019-05-15T02:58:52.145Z,10.6
2019-05-15T02:59:54.007Z,11.3
2019-05-15T03:00:59.670Z,10.5
2019-05-15T03:02:01.542Z,11
2019-05-15T03:03:03.545Z,10.8
2019-05-15T03:04:05.409Z,11.4
2019-05-15T03:05:10.777Z,11.6
2019-05-15T03:06:12.361Z,11.5
2019-05-15T03:07:13.944Z,11.5
2019-05-15T03:08:19.939Z,11.7
2019-05-15T03:09:21.521Z,11.8
2019-05-15T03:10:23.103Z,11.7
2019-05-15T03:11:24.963Z,11.9
2019-05-15T03:12:29.938Z,11.9
2019-05-15T03:13:31.802Z,11.4
2019-05-15T03:14:33.668Z,12
2019-05-15T03:15:35.568Z,12.5
2019-05-15T03:16:40.798Z,12
2019-05-15T03:17:42.656Z,12.4
2019-05-15T03:18:44.515Z,12.6
2019-05-15T03:19:45.812Z,12.3
2019-05-15T03:20:51.211Z,12.5
2019-05-15T03:21:53.070Z,12
2019-05-15T03:22:54.933Z,12.3
2019-05-15T03:24:00.052Z,12.1
2019-05-15T03:25:01.964Z,12.4
2019-05-15T03:26:08.603Z,11.7
2019-05-15T03:27:10.500Z,11.6
2019-05-15T03:28:12.670Z,11.5
2019-05-15T03:29:14.254Z,11.9
2019-05-15T03:30:22.989Z,12.2
2019-05-15T03:32:35.585Z,12.4
2019-05-15T03:33:55.410Z,12.5
2019-05-15T03:35:13.087Z,13.2
2019-05-15T03:36:15.688Z,12.9
2019-05-15T03:37:24.047Z,13.7
2019-05-15T03:38:30.233Z,13.6
2019-05-15T03:39:32.139Z,12.9
2019-05-15T03:40:33.998Z,13.7
2019-05-15T03:41:39.034Z,12.7
2019-05-15T03:42:41.494Z,13.8
2019-05-15T03:43:43.346Z,13.4
2019-05-15T03:44:45.215Z,12.9
2019-05-15T03:45:50.648Z,14
2019-05-15T03:46:52.504Z,13.9
2019-05-15T03:47:53.834Z,12.6
2019-05-15T03:48:55.428Z,12.9
2019-05-15T03:50:00.451Z,13
2019-05-15T03:51:02.288Z,13.2
2019-05-15T03:52:04.151Z,12.5
2019-05-15T03:53:06.017Z,13.5
2019-05-15T03:54:10.467Z,12.5
2019-05-15T03:55:12.821Z,12.9
2019-05-15T03:56:14.679Z,12.5
2019-05-15T03:57:24.190Z,13.4
2019-05-15T03:58:29.209Z,13.2
2019-05-15T03:59:31.136Z,13.3
2019-05-15T04:00:32.728Z,13
2019-05-15T04:01:45.048Z,12.5
2019-05-15T04:02:50.212Z,12.4
2019-05-15T04:03:52.074Z,12.3
2019-05-15T04:05:02.625Z,12.1
2019-05-15T04:06:04.481Z,11.2
2019-05-15T04:07:10.160Z,12.2
2019-05-15T04:08:12.849Z,12
2019-05-15T04:09:14.706Z,12.8
2019-05-15T04:10:20.328Z,12
2019-05-15T04:11:22.205Z,12.2
2019-05-15T04:12:23.784Z,11.3
2019-05-15T04:13:25.647Z,11.3
2019-05-15T04:14:30.504Z,11.7
2019-05-15T04:15:32.365Z,11.7
2019-05-15T04:16:34.230Z,11.7
2019-05-15T04:17:36.095Z,11.8
2019-05-15T04:18:40.979Z,11.8
2019-05-15T04:19:42.842Z,11.8
2019-05-15T04:20:44.701Z,12.1
2019-05-15T04:21:50.250Z,12.1
2019-05-15T04:22:52.113Z,11.7
2019-05-15T04:23:53.972Z,11.3
2019-05-15T04:24:58.941Z,12
2019-05-15T04:26:00.836Z,12
2019-05-15T04:27:11.168Z,12.5
2019-05-15T04:28:12.790Z,13
2019-05-15T04:29:14.653Z,13
2019-05-15T04:30:19.485Z,12.5
2019-05-15T04:31:21.346Z,11.7
2019-05-15T04:32:22.943Z,12.6
2019-05-15T04:33:24.517Z,13.1
2019-05-15T04:34:29.499Z,13
2019-05-15T04:35:31.371Z,13.3
2019-05-15T04:36:32.950Z,13.4
2019-05-15T04:37:34.535Z,11.9
2019-05-15T04:38:40.246Z,12.2
2019-05-15T04:39:42.127Z,12.2
2019-05-15T04:40:43.706Z,12.9
2019-05-15T04:41:45.566Z,12.1
2019-05-15T04:42:50.708Z,12
2019-05-15T04:43:52.612Z,12.3
2019-05-15T04:44:54.179Z,11.8
2019-05-15T04:46:03.336Z,12.1
2019-05-15T04:47:04.949Z,12.6
2019-05-15T04:48:11.212Z,12.4
2019-05-15T04:49:13.076Z,12.2
2019-05-15T04:50:14.945Z,12.4
2019-05-15T04:51:19.950Z,13.6
2019-05-15T04:52:21.813Z,12.8
2019-05-15T04:53:23.687Z,13.7
2019-05-15T04:54:28.703Z,13.5
2019-05-15T04:55:30.795Z,12.9
2019-05-15T04:56:32.657Z,13
2019-05-15T04:57:39.436Z,12.7
2019-05-15T04:58:41.629Z,14
2019-05-15T04:59:43.496Z,13.4
2019-05-15T05:00:45.376Z,12.8
2019-05-15T05:01:47.238Z,13.3
2019-05-15T05:02:51.198Z,12.8
2019-05-15T05:03:52.788Z,12.8
2019-05-15T05:04:54.648Z,13
2019-05-15T05:05:59.782Z,13.6
2019-05-15T05:07:01.655Z,12.8
2019-05-15T05:08:03.514Z,13.6
2019-05-15T05:09:05.373Z,13.7
2019-05-15T05:10:11.298Z,13.4
2019-05-15T05:11:13.158Z,13.3
2019-05-15T05:12:15.023Z,13.3
2019-05-15T05:13:20.527Z,13.3
2019-05-15T05:14:22.438Z,13.6
2019-05-15T05:15:24.013Z,12.6
2019-05-15T05:16:29.325Z,13.8
2019-05-15T05:17:31.289Z,13.2
2019-05-15T05:18:33.150Z,12.5
2019-05-15T05:19:35.003Z,12.7
2019-05-15T05:20:39.160Z,12.5
2019-05-15T05:21:40.463Z,12.3
2019-05-15T05:22:42.324Z,12.9
2019-05-15T05:23:44.181Z,12.3
2019-05-15T05:24:48.279Z,12.7
2019-05-15T05:25:50.826Z,12.7
2019-05-15T05:26:52.686Z,12.2
2019-05-15T05:27:54.545Z,12.6
2019-05-15T05:29:02.185Z,13.4
2019-05-15T05:30:04.041Z,12.7
2019-05-15T05:31:08.148Z,12.5
2019-05-15T05:32:10.446Z,12.7
2019-05-15T05:33:12.301Z,12.6
2019-05-15T05:34:13.883Z,12.2
2019-05-15T05:35:15.740Z,12.6
2019-05-15T05:36:19.696Z,12.9
2019-05-15T05:37:21.583Z,11.9
2019-05-15T05:38:23.440Z,12.8
2019-05-15T05:39:25.354Z,12.5
2019-05-15T05:40:29.727Z,11.7
2019-05-15T05:41:31.593Z,12.4
2019-05-15T05:42:33.453Z,12.3
2019-05-15T05:43:35.310Z,12.8
2019-05-15T05:44:43.716Z,12.5
2019-05-15T05:45:45.302Z,11.2
2019-05-15T05:46:48.627Z,12.4
2019-05-15T05:47:50.971Z,11.9
2019-05-15T05:48:52.831Z,11.9
2019-05-15T05:49:54.689Z,12.1
2019-05-15T05:50:59.089Z,11.8
2019-05-15T05:52:00.973Z,11.9
2019-05-15T05:53:02.535Z,11.3
2019-05-15T05:54:04.397Z,11.7
2019-05-15T05:55:08.493Z,12
2019-05-15T05:56:10.342Z,11.2
2019-05-15T05:57:12.203Z,11.5
2019-05-15T05:58:13.787Z,11.1
2019-05-15T05:59:15.375Z,12.1
2019-05-15T06:00:19.287Z,12.6
2019-05-15T06:01:21.155Z,11.3
2019-05-15T06:02:22.776Z,11.4
2019-05-15T06:03:24.369Z,11.5
2019-05-15T06:04:28.315Z,11.1
2019-05-15T06:05:30.174Z,12.2
2019-05-15T06:06:32.035Z,11.8
2019-05-15T06:07:39.481Z,11.9
2019-05-15T06:08:41.343Z,12
2019-05-15T06:09:43.201Z,11.8
2019-05-15T06:10:45.141Z,11.1
2019-05-15T06:11:49.304Z,11.4
2019-05-15T06:12:51.166Z,11.1
2019-05-15T06:13:54.074Z,11.1
2019-05-15T06:14:58.512Z,12.2
2019-05-15T06:16:00.652Z,11.3
2019-05-15T06:17:02.513Z,11.5
2019-05-15T06:18:04.398Z,11.4
2019-05-15T06:19:08.633Z,11.6
2019-05-15T06:20:10.494Z,11.7
2019-05-15T06:21:12.355Z,11.1
2019-05-15T06:22:14.226Z,11.1
2019-05-15T06:23:25.764Z,11.3
2019-05-15T06:24:31.902Z,11
2019-05-15T06:25:33.585Z,11
2019-05-15T06:26:35.443Z,10.5
2019-05-15T06:27:39.897Z,11.1
2019-05-15T06:28:41.767Z,11.1
2019-05-15T06:29:43.624Z,11
2019-05-15T06:30:45.482Z,11.1
2019-05-15T06:31:49.767Z,11.1
2019-05-15T06:33:14.168Z,11.5
2019-05-15T06:34:18.272Z,10.8
2019-05-15T06:35:20.920Z,11.1
2019-05-15T06:36:22.795Z,11.1
2019-05-15T06:37:24.652Z,11
2019-05-15T06:38:31.335Z,11.2
2019-05-15T06:39:33.195Z,11.2
2019-05-15T06:40:35.053Z,11
2019-05-15T06:41:39.425Z,11
2019-05-15T06:42:41.286Z,10.8
2019-05-15T06:43:43.177Z,10.7
2019-05-15T06:44:44.738Z,10.4
2019-05-15T06:45:49.099Z,10.6
2019-05-15T06:46:51.078Z,10.5
2019-05-15T06:47:52.948Z,11
2019-05-15T06:48:54.803Z,9.8
2019-05-15T06:49:58.929Z,10.8
2019-05-15T06:51:00.791Z,10.9
2019-05-15T06:52:02.651Z,10.7
2019-05-15T06:53:07.644Z,10
2019-05-15T06:54:12.231Z,10.6
2019-05-15T06:55:14.091Z,11.7
2019-05-15T06:56:15.674Z,10.7
2019-05-15T06:57:19.922Z,10.6
2019-05-15T06:58:24.718Z,10.8
2019-05-15T06:59:29.153Z,14.5
2019-05-15T07:00:31.015Z,11.6
2019-05-15T07:01:32.875Z,10.8
2019-05-15T07:02:34.738Z,10.1
2019-05-15T07:03:38.883Z,10.2
2019-05-15T07:04:41.090Z,10.1
2019-05-15T07:05:43.107Z,10.3
2019-05-15T07:06:44.967Z,10.5
2019-05-15T07:07:49.289Z,10.3
2019-05-15T07:08:51.364Z,9.5
2019-05-15T07:09:53.212Z,9.7
2019-05-15T07:10:55.071Z,9.7
2019-05-15T07:11:59.461Z,9.5
2019-05-15T07:13:01.040Z,9.3
2019-05-15T07:14:02.901Z,10.2
2019-05-15T07:15:04.759Z,9.4
2019-05-15T07:16:09.089Z,10
2019-05-15T07:17:10.873Z,9.5
2019-05-15T07:18:12.732Z,9.2
2019-05-15T07:19:14.592Z,10
2019-05-15T07:20:15.910Z,9.6
2019-05-15T07:21:21.771Z,10
2019-05-15T07:22:23.628Z,9.6
2019-05-15T07:23:31.778Z,9.9
2019-05-15T07:24:33.636Z,9.5
2019-05-15T07:25:35.493Z,9.4
2019-05-15T07:26:40.261Z,9
2019-05-15T07:27:42.125Z,8.9
2019-05-15T07:28:43.980Z,9.1
2019-05-15T07:29:45.835Z,9
2019-05-15T07:30:50.416Z,9.3
2019-05-15T07:31:52.289Z,9.5
2019-05-15T07:32:54.150Z,8.9
2019-05-15T07:33:56.005Z,9.1
2019-05-15T07:34:59.139Z,9.5
2019-05-15T07:36:00.998Z,9.8
2019-05-15T07:37:02.859Z,9.7
2019-05-15T07:38:04.717Z,9.7
2019-05-15T07:39:08.818Z,9.1
2019-05-15T07:40:10.390Z,9.9
2019-05-15T07:41:12.263Z,10
2019-05-15T07:42:13.591Z,9.7
2019-05-15T07:43:14.882Z,10.3
2019-05-15T07:44:19.235Z,9.9
2019-05-15T07:45:21.446Z,9.5
2019-05-15T07:46:23.307Z,9.9
2019-05-15T07:47:25.162Z,9
2019-05-15T07:48:29.524Z,9.2
2019-05-15T07:49:31.095Z,9.6
2019-05-15T07:50:32.954Z,9.2
2019-05-15T07:51:34.817Z,9.7
2019-05-15T07:52:39.175Z,9.9
2019-05-15T07:53:40.695Z,9.4
2019-05-15T07:54:42.270Z,9.9
2019-05-15T07:55:44.155Z,10.5
2019-05-15T07:56:46.010Z,9.5
2019-05-15T07:57:50.985Z,9.5
2019-05-15T07:58:54.376Z,9.7
2019-05-15T07:59:56.236Z,9.6
2019-05-15T08:01:00.533Z,8.8
2019-05-15T08:02:02.394Z,9.4
2019-05-15T08:03:04.253Z,9.1
2019-05-15T08:04:33.597Z,8.5
2019-05-15T08:05:35.195Z,8.5
2019-05-15T08:06:40.287Z,9
2019-05-15T08:07:42.152Z,8.5
2019-05-15T08:08:44.013Z,8.8
2019-05-15T08:09:48.407Z,8.6
2019-05-15T08:10:50.759Z,9
2019-05-15T08:11:52.628Z,9.9
2019-05-15T08:12:54.487Z,9.2
2019-05-15T08:13:58.655Z,9.8
2019-05-15T08:15:00.517Z,9.5
2019-05-15T08:16:01.854Z,9.4
2019-05-15T08:17:03.427Z,9.2
2019-05-15T08:18:13.790Z,8.9
2019-05-15T08:19:18.160Z,9.2
2019-05-15T08:20:20.162Z,9
2019-05-15T08:21:21.746Z,8.9
2019-05-15T08:22:23.320Z,8.9
2019-05-15T08:23:25.179Z,9.2
2019-05-15T08:24:31.090Z,9.1
2019-05-15T08:25:39.329Z,8.5
2019-05-15T08:26:48.872Z,8.2
2019-05-15T08:27:49.632Z,8.1
2019-05-15T08:28:51.504Z,8.8
2019-05-15T08:29:53.082Z,8.6
2019-05-15T08:30:54.949Z,9
2019-05-15T08:31:59.431Z,9.1
2019-05-15T08:33:01.306Z,9.6
2019-05-15T08:34:19.852Z,9.4
2019-05-15T08:35:21.749Z,9.5
2019-05-15T08:36:23.334Z,9.7
2019-05-15T08:37:25.194Z,9.6
2019-05-15T08:38:29.501Z,9.3
2019-05-15T08:39:31.361Z,9.1
2019-05-15T08:40:33.221Z,8.7
2019-05-15T08:41:35.083Z,10
2019-05-15T08:42:42.788Z,9.8
2019-05-15T08:43:44.367Z,9.8
2019-05-15T08:44:46.223Z,9.7
2019-05-15T08:45:51.033Z,9.3
2019-05-15T08:46:52.915Z,8.4
2019-05-15T08:47:54.761Z,8.6
2019-05-15T08:48:59.278Z,8.9
2019-05-15T08:50:01.210Z,8.9
2019-05-15T08:51:03.075Z,8.9
2019-05-15T08:52:10.564Z,9
2019-05-15T08:53:12.427Z,8.5
2019-05-15T08:54:14.004Z,8.8
2019-05-15T08:55:15.875Z,8.7
2019-05-15T08:56:20.702Z,8.9
2019-05-15T08:57:22.571Z,8.6
2019-05-15T08:58:24.434Z,8.2
2019-05-15T08:59:29.227Z,8.2
2019-05-15T09:00:31.225Z,8.3
2019-05-15T09:01:32.541Z,9
2019-05-15T09:02:33.836Z,8.7
2019-05-15T09:03:37.881Z,8.1
2019-05-15T09:04:40.247Z,8.9
2019-05-15T09:05:42.109Z,8.4
2019-05-15T09:06:44.038Z,8.2
2019-05-15T09:07:45.905Z,9.5
2019-05-15T09:08:50.438Z,8.8
2019-05-15T09:09:52.295Z,9
2019-05-15T09:10:54.158Z,8.9
2019-05-15T09:11:58.347Z,9.2
2019-05-15T09:12:59.753Z,8.9
2019-05-15T09:14:01.614Z,8.5
2019-05-15T09:15:03.484Z,8.4
2019-05-15T09:16:05.341Z,8.3
2019-05-15T09:17:09.637Z,8.3
2019-05-15T09:18:20.820Z,8.3
2019-05-15T09:19:22.681Z,9.2
2019-05-15T09:20:24.693Z,8
2019-05-15T09:21:28.755Z,8.6
2019-05-15T09:22:30.746Z,8.2
2019-05-15T09:23:31.805Z,8.3
2019-05-15T09:24:33.668Z,8.3
2019-05-15T09:25:35.527Z,7.7
2019-05-15T09:26:41.337Z,7.2
2019-05-15T09:27:43.202Z,7.8
2019-05-15T09:28:45.075Z,7.8
2019-05-15T09:29:49.325Z,7.5
2019-05-15T09:30:50.959Z,7.7
2019-05-15T09:31:52.823Z,7.4
2019-05-15T09:32:54.684Z,8
2019-05-15T09:33:58.981Z,8.3
2019-05-15T09:35:00.936Z,7.4
2019-05-15T09:36:02.793Z,7.7
2019-05-15T09:37:04.460Z,7.5
2019-05-15T09:38:08.505Z,7.9
2019-05-15T09:39:13.886Z,7.3
2019-05-15T09:40:15.467Z,7.2
2019-05-15T09:41:19.284Z,7.3
2019-05-15T09:42:21.164Z,7.1
2019-05-15T09:43:23.021Z,8
2019-05-15T09:44:24.897Z,7.6
2019-05-15T09:45:29.077Z,7.1
2019-05-15T09:46:30.665Z,7.3
2019-05-15T09:47:31.751Z,8
2019-05-15T09:48:33.319Z,7.9
2019-05-15T09:49:34.901Z,7.9
2019-05-15T09:50:40.135Z,7.6
2019-05-15T09:51:41.723Z,7.9
2019-05-15T09:52:43.315Z,7.8
2019-05-15T09:53:45.185Z,8.6
2019-05-15T09:54:50.023Z,8.1
2019-05-15T09:55:51.608Z,8.3
2019-05-15T09:56:53.184Z,7.8
2019-05-15T09:57:59.539Z,7.7
2019-05-15T09:59:01.105Z,7.9
2019-05-15T10:00:02.973Z,7.7
2019-05-15T10:01:04.837Z,7.4
2019-05-15T10:02:09.062Z,7.9
2019-05-15T10:03:11.116Z,8.1
2019-05-15T10:04:12.698Z,8.3
2019-05-15T10:05:13.993Z,8.5
2019-05-15T10:06:15.863Z,8.4
2019-05-15T10:07:20.450Z,8.5
2019-05-15T10:08:23.050Z,8.3
2019-05-15T10:09:24.622Z,7.6
2019-05-15T10:10:28.618Z,7.5
2019-05-15T10:11:30.512Z,7.5
2019-05-15T10:12:39.215Z,7.3
2019-05-15T10:13:41.088Z,7.3
2019-05-15T10:14:42.952Z,7.6
2019-05-15T10:15:51.699Z,7.8
2019-05-15T10:16:53.569Z,7.1
2019-05-15T10:17:55.156Z,6.8
2019-05-15T10:18:59.278Z,7
2019-05-15T10:20:01.143Z,7.2
2019-05-15T10:21:02.785Z,7.6
2019-05-15T10:22:04.921Z,7.8
2019-05-15T10:23:09.441Z,7.6
2019-05-15T10:24:11.013Z,7
2019-05-15T10:25:12.597Z,7.1
2019-05-15T10:26:15.882Z,7.4
2019-05-15T10:27:19.517Z,7.3
2019-05-15T10:28:21.380Z,7.5
2019-05-15T10:29:23.242Z,6.7
2019-05-15T10:30:24.830Z,6.5
2019-05-15T10:31:29.714Z,7.1
2019-05-15T10:32:31.301Z,7
2019-05-15T10:33:32.883Z,6.6
2019-05-15T10:34:34.760Z,7.3
2019-05-15T10:35:39.114Z,7.1
2019-05-15T10:36:40.842Z,7.4
2019-05-15T10:37:42.702Z,6.9
2019-05-15T10:38:44.787Z,6.1
2019-05-15T10:39:52.884Z,6.2
2019-05-15T10:41:15.865Z,5.9
2019-05-15T10:42:20.769Z,6.6
2019-05-15T10:43:22.899Z,6
2019-05-15T10:44:24.781Z,7.8
2019-05-15T10:45:29.216Z,6.9
2019-05-15T10:46:31.339Z,6.8
2019-05-15T10:47:32.924Z,6.9
2019-05-15T10:48:35.006Z,6.7
2019-05-15T10:49:39.382Z,6.4
2019-05-15T10:50:41.246Z,6.7
2019-05-15T10:51:43.109Z,6.2
2019-05-15T10:52:44.691Z,6.7
2019-05-15T10:53:49.261Z,6
2019-05-15T10:54:51.124Z,5.5
2019-05-15T10:55:52.986Z,6.2
2019-05-15T10:56:54.563Z,6.2
2019-05-15T10:57:56.447Z,6.9
2019-05-15T10:59:00.370Z,6.8
2019-05-15T11:00:02.232Z,6.8
2019-05-15T11:01:05.435Z,6.7
2019-05-15T11:02:09.942Z,6.7
2019-05-15T11:03:11.802Z,6.7
2019-05-15T11:04:13.377Z,6.2
2019-05-15T11:05:15.241Z,6.5
2019-05-15T11:06:19.293Z,6.4
2019-05-15T11:07:21.166Z,6.4
2019-05-15T11:08:23.030Z,7.2
2019-05-15T11:09:24.902Z,7.4
2019-05-15T11:10:29.431Z,6.7
2019-05-15T11:11:31.296Z,6.8
2019-05-15T11:12:33.158Z,6.5
2019-05-15T11:13:35.029Z,6.4
2019-05-15T11:14:39.351Z,6.1
2019-05-15T11:15:44.100Z,6.4
2019-05-15T11:16:48.902Z,5.9
2019-05-15T11:17:50.635Z,6.2
2019-05-15T11:18:54.708Z,6.7
2019-05-15T11:19:58.505Z,6.5
2019-05-15T11:21:00.916Z,6.6
2019-05-15T11:22:02.536Z,7.1
2019-05-15T11:23:04.403Z,7.3
2019-05-15T11:24:08.569Z,6.7
2019-05-15T11:25:11.407Z,7.2
2019-05-15T11:26:13.272Z,6.4
2019-05-15T11:27:15.134Z,6.2
2019-05-15T11:28:16.469Z,6.7
2019-05-15T11:29:18.322Z,6.9
2019-05-15T11:30:20.798Z,6.7
2019-05-15T11:31:29.166Z,7.4
2019-05-15T11:32:31.011Z,6.5
2019-05-15T11:33:33.108Z,6.9
2019-05-15T11:34:34.974Z,6
2019-05-15T11:35:39.066Z,5.8
2019-05-15T11:36:42.242Z,6.9
2019-05-15T11:37:57.719Z,6.2
2019-05-15T11:38:59.634Z,6.5
2019-05-15T11:40:01.539Z,6.6
2019-05-15T11:41:08.415Z,6.4
2019-05-15T11:42:10.232Z,7
2019-05-15T11:43:12.092Z,6.9
2019-05-15T11:44:13.678Z,6.5
2019-05-15T11:45:15.542Z,6.6
2019-05-15T11:46:19.656Z,6.1
2019-05-15T11:47:21.533Z,6.2
2019-05-15T11:48:23.403Z,6.3
2019-05-15T11:49:25.262Z,6.7
2019-05-15T11:50:30.734Z,6.2
2019-05-15T11:51:32.596Z,6.6
2019-05-15T11:52:41.413Z,6.6
2019-05-15T11:53:43.260Z,6.1
2019-05-15T11:54:45.124Z,7.4
2019-05-15T11:55:49.543Z,6.6
2019-05-15T11:56:51.410Z,7.3
2019-05-15T11:57:59.519Z,7.1
2019-05-15T11:59:01.380Z,6.7
2019-05-15T12:00:06.014Z,6.2
2019-05-15T12:01:10.342Z,6.6
2019-05-15T12:02:12.320Z,7.2
2019-05-15T12:03:14.186Z,6.3
2019-05-15T12:04:34.952Z,6.1
2019-05-15T12:05:39.377Z,6.6
2019-05-15T12:06:41.251Z,6
2019-05-15T12:07:43.111Z,6.6
2019-05-15T12:08:44.975Z,6.3
2019-05-15T12:09:46.843Z,6.2
2019-05-15T12:10:48.443Z,6.2
2019-05-15T12:11:50.289Z,5.5
2019-05-15T12:12:52.155Z,5.7
2019-05-15T12:13:54.022Z,5.7
2019-05-15T12:14:55.891Z,5.6
2019-05-15T12:16:00.217Z,5.4
2019-05-15T12:17:18.799Z,6.2
2019-05-15T12:18:20.798Z,5.9
2019-05-15T12:19:22.650Z,6.2
2019-05-15T12:20:24.238Z,6.8
2019-05-15T12:21:29.029Z,5.7
2019-05-15T12:22:30.623Z,6.4
2019-05-15T12:23:32.491Z,6.3
2019-05-15T12:24:41.586Z,7.3
2019-05-15T12:25:43.436Z,6.8
2019-05-15T12:26:45.023Z,6.3
2019-05-15T12:27:49.979Z,6.6
2019-05-15T12:28:51.844Z,6.4
2019-05-15T12:29:53.705Z,6.5
2019-05-15T12:30:58.991Z,7.2
2019-05-15T12:34:38.782Z,7.2
2019-05-15T12:35:41.480Z,6.7
2019-05-15T12:38:58.468Z,7
2019-05-15T13:00:39.287Z,7.5
2019-05-15T13:01:41.161Z,7.6
2019-05-15T13:02:43.017Z,7.4
2019-05-15T13:03:44.884Z,7.5
2019-05-15T13:04:46.750Z,7.5
2019-05-15T13:05:50.115Z,6.7
2019-05-15T13:07:20.391Z,6.6
2019-05-15T13:08:22.255Z,7.8
2019-05-15T13:09:24.119Z,6.8
2019-05-15T13:10:25.984Z,6.7
2019-05-15T13:11:29.931Z,6.3
2019-05-15T13:12:31.796Z,6.7
2019-05-15T13:13:33.658Z,6.7
2019-05-15T13:14:35.526Z,7.4
2019-05-15T13:15:42.577Z,7
2019-05-15T13:16:44.440Z,6.5
2019-05-15T13:17:51.877Z,6.3
2019-05-15T13:18:54.015Z,6.2
2019-05-15T13:19:55.589Z,6.6
2019-05-15T13:21:00.770Z,6.6
2019-05-15T13:22:02.641Z,6.1
2019-05-15T13:23:04.517Z,7.1
2019-05-15T13:24:08.588Z,6.4
2019-05-15T13:25:10.434Z,6.5
2019-05-15T13:26:28.059Z,5.8
2019-05-15T13:27:29.923Z,6.1
2019-05-15T13:28:31.795Z,6.5
2019-05-15T13:29:33.649Z,6.4
2019-05-15T13:30:42.187Z,7
2019-05-15T13:31:44.060Z,7
2019-05-15T13:32:45.929Z,7
2019-05-15T13:33:49.594Z,7.7
2019-05-15T13:34:51.462Z,7.5
2019-05-15T13:35:53.032Z,7.5
2019-05-15T13:36:54.894Z,7.4
2019-05-15T13:37:59.253Z,6.8
2019-05-15T13:39:01.117Z,6.7
2019-05-15T13:40:02.706Z,6.3
2019-05-15T13:41:04.629Z,6
2019-05-15T13:42:06.506Z,6.6
2019-05-15T13:43:09.877Z,6.1
2019-05-15T13:44:11.744Z,5.9
2019-05-15T13:45:14.998Z,6.1
2019-05-15T13:46:21.394Z,6.3
2019-05-15T13:47:23.263Z,6.2
2019-05-15T13:48:25.367Z,6.3
2019-05-15T13:49:29.518Z,5.8
2019-05-15T13:50:31.387Z,5.7
2019-05-15T13:51:33.252Z,5.6
2019-05-15T13:52:34.857Z,5.4
2019-05-15T13:53:38.882Z,5.5
2019-05-15T13:54:40.760Z,5.7
2019-05-15T13:55:44.406Z,6.1
2019-05-15T13:56:46.025Z,5.3
2019-05-15T13:57:50.089Z,5.9
2019-05-15T13:58:51.927Z,6
2019-05-15T13:59:53.794Z,5.6
2019-05-15T14:00:55.368Z,6.2
2019-05-15T14:02:00.302Z,6
2019-05-15T14:03:02.244Z,6.5
2019-05-15T14:04:04.101Z,6.1
2019-05-15T14:05:05.693Z,6.1
2019-05-15T14:06:11.167Z,6.6
2019-05-15T14:07:13.033Z,6.6
2019-05-15T14:08:14.892Z,6.1
2019-05-15T14:09:16.753Z,6.4
2019-05-15T14:10:19.589Z,5.9
2019-05-15T14:11:23.282Z,5.9
2019-05-15T14:12:24.877Z,6.3
2019-05-15T14:13:29.557Z,6.1
2019-05-15T14:14:30.599Z,6.4
2019-05-15T14:15:32.170Z,5.9
2019-05-15T14:16:34.038Z,6.2
2019-05-15T14:17:38.071Z,6.6
2019-05-15T14:18:40.582Z,6.6
2019-05-15T14:19:42.446Z,6.5
2019-05-15T14:20:44.312Z,5.7
2019-05-15T14:21:48.644Z,5.8
2019-05-15T14:22:50.971Z,6
2019-05-15T14:23:52.832Z,5.8
2019-05-15T14:24:54.694Z,5.5
2019-05-15T14:25:58.677Z,6.2
2019-05-15T14:27:00.922Z,6.2
2019-05-15T14:28:02.795Z,5.9
2019-05-15T14:29:09.910Z,6.6
2019-05-15T14:30:11.781Z,6
2019-05-15T14:31:13.682Z,6.2
2019-05-15T14:32:15.547Z,6.4
2019-05-15T14:33:19.894Z,6.1
2019-05-15T14:34:22.472Z,6.7
2019-05-15T14:35:24.513Z,6.6
2019-05-15T14:36:29.173Z,7.1
2019-05-15T14:37:31.034Z,6.9
2019-05-15T14:38:32.907Z,5.6
2019-05-15T14:39:34.483Z,6.5
2019-05-15T14:40:36.350Z,5.5
2019-05-15T14:41:39.751Z,5.4
2019-05-15T14:42:41.620Z,5.3
2019-05-15T14:43:43.498Z,5.8
2019-05-15T14:44:45.667Z,5
2019-05-15T14:45:50.104Z,4.8
2019-05-15T14:46:52.495Z,4.7
2019-05-15T14:47:53.263Z,4.7
2019-05-15T14:48:55.128Z,4.8